Time;durP1;ratioP1;P1;durP2;ratioP2;P2;SDS_P1;SDS_P2;PMS_P1;PMS_P2;Temp;Humidity;BMP_temperature;BMP_pressure;BME280_temperature;BME280_humidity;BME280_pressure;Samples;Min_cycle;Max_cycle;Signal;HPM_P1;HPM_P2
2022/04/30 00:02:11;;;;;;;;;;;;;;;12.01;57.85;96927.22;5096820;28;19948;-73
2022/04/30 00:04:39;;;;;;;;;;;;;;;11.98;57.56;96926.66;5096610;28;19979;-73
2022/04/30 00:07:05;;;;;;;;;;;;;;;11.95;57.96;96918.41;5096724;28;19989;-73
2022/04/30 00:09:31;;;;;;;;;;;;;;;11.93;58.11;96923.88;5096837;28;20331;-73
2022/04/30 00:11:58;;;;;;;;;;;;;;;11.91;57.95;96920.66;5096574;28;19971;-73
2022/04/30 00:14:25;;;;;;;;;;;;;;;11.90;57.22;96910.34;5096613;28;19972;-73
2022/04/30 00:16:51;;;;;;;;;;;;;;;11.87;57.22;96902.88;5096682;28;20336;-73
2022/04/30 00:19:19;;;;;;;;;;;;;;;11.86;57.70;96914.38;5095748;28;20341;-73
2022/04/30 00:21:44;;;;;;;;;;;;;;;11.85;57.58;96910.16;5096384;28;20321;-73
2022/04/30 00:24:10;;;;;;;;;;;;;;;11.84;57.71;96913.78;5096496;28;19959;-72
2022/04/30 00:26:36;;;;;;;;;;;;;;;11.83;57.66;96915.63;5096388;28;19952;-73
2022/04/30 00:29:02;;;;;;;;;;;;;;;11.82;58.03;96914.00;5096652;28;20517;-72
2022/04/30 00:31:28;;;;;;;;;;;;;;;11.77;55.67;96908.59;5096304;28;19967;-73
2022/04/30 00:33:55;;;;;;;;;;;;;;;11.62;56.40;96911.53;5096309;28;19950;-73
2022/04/30 00:36:21;;;;;;;;;;;;;;;11.50;59.43;96923.72;5095689;28;19959;-73
2022/04/30 00:38:47;;;;;;;;;;;;;;;11.43;58.90;96923.78;5096450;28;19959;-72
2022/04/30 00:41:13;;;;;;;;;;;;;;;11.40;59.32;96923.38;5096108;28;19954;-73
2022/04/30 00:43:46;;;;;;;;;;;;;;;11.35;59.09;96924.81;5096001;28;20379;-73
2022/04/30 00:46:16;;;;;;;;;;;;;;;11.33;59.85;96926.06;5096214;28;20347;-72
2022/04/30 00:48:42;;;;;;;;;;;;;;;11.32;58.36;96917.38;5096314;28;19957;-73
2022/04/30 00:51:12;;;;;;;;;;;;;;;11.33;58.20;96915.53;5095908;28;20446;-73
2022/04/30 00:53:38;;;;;;;;;;;;;;;11.34;57.88;96909.28;5095937;28;19943;-72
2022/04/30 00:56:05;;;;;;;;;;;;;;;11.35;57.87;96909.06;5096026;28;20073;-72
2022/04/30 00:58:32;;;;;;;;;;;;;;;11.36;57.89;96918.56;5095702;28;19966;-75
2022/04/30 01:01:00;;;;;;;;;;;;;;;11.36;59.49;96928.28;5096031;28;20349;-72
2022/04/30 01:03:26;;;;;;;;;;;;;;;11.33;58.68;96918.19;5095902;28;19976;-72
2022/04/30 01:05:53;;;;;;;;;;;;;;;11.30;59.94;96918.59;5095630;28;19960;-73
2022/04/30 01:08:19;;;;;;;;;;;;;;;11.28;59.70;96923.25;5095636;28;20459;-72
2022/04/30 01:10:46;;;;;;;;;;;;;;;11.23;61.67;96923.06;5095590;28;19951;-73
2022/04/30 01:13:13;;;;;;;;;;;;;;;11.18;62.44;96921.09;5095538;28;19967;-72
2022/04/30 01:15:39;;;;;;;;;;;;;;;11.14;62.33;96912.81;5095327;28;19955;-73
2022/04/30 01:18:08;;;;;;;;;;;;;;;11.13;61.01;96907.78;5095714;28;19950;-73
2022/04/30 01:20:35;;;;;;;;;;;;;;;11.12;63.30;96917.47;5095263;28;19970;-73
2022/04/30 01:23:02;;;;;;;;;;;;;;;11.11;63.79;96918.50;5095525;28;20421;-72
2022/04/30 01:25:30;;;;;;;;;;;;;;;11.09;61.85;96915.28;5095074;28;19956;-73
2022/04/30 01:27:57;;;;;;;;;;;;;;;11.05;64.26;96921.94;5095231;28;19961;-72
2022/04/30 01:30:23;;;;;;;;;;;;;;;11.02;64.16;96918.94;5094349;28;19954;-72
2022/04/30 01:38:17;;;;;;;;;;;;;;;10.94;64.86;96909.47;5094945;28;20315;-72
2022/04/30 01:40:43;;;;;;;;;;;;;;;10.92;65.92;96904.44;5095007;28;19976;-72
2022/04/30 01:43:09;;;;;;;;;;;;;;;10.91;65.24;96905.44;5094976;28;19997;-72
2022/04/30 01:45:35;;;;;;;;;;;;;;;10.88;66.48;96916.38;5095002;28;20334;-73
2022/04/30 01:48:02;;;;;;;;;;;;;;;10.85;65.63;96898.41;5094602;28;19964;-73
2022/04/30 01:50:28;;;;;;;;;;;;;;;10.84;65.79;96890.75;5094719;28;19951;-73
2022/04/30 01:52:54;;;;;;;;;;;;;;;10.80;67.34;96903.47;5086413;28;20415;-73
2022/04/30 01:55:20;;;;;;;;;;;;;;;10.79;65.99;96891.34;5094670;28;19963;-73
2022/04/30 01:57:46;;;;;;;;;;;;;;;10.80;66.19;96889.56;5094119;28;19955;-73
2022/04/30 02:00:14;;;;;;;;;;;;;;;10.78;67.08;96897.63;5094760;28;20061;-73
2022/04/30 02:02:44;;;;;;;;;;;;;;;10.75;67.14;96887.53;5093642;28;19951;-72
2022/04/30 02:05:12;;;;;;;;;;;;;;;10.73;67.78;96886.94;5094270;28;19985;-72
2022/04/30 02:07:40;;;;;;;;;;;;;;;10.70;67.08;96885.53;5094540;28;19949;-72
2022/04/30 02:10:06;;;;;;;;;;;;;;;10.68;67.43;96884.94;5094708;28;20316;-72
2022/04/30 02:12:32;;;;;;;;;;;;;;;10.67;66.80;96869.44;5094250;28;19951;-72
2022/04/30 02:14:59;;;;;;;;;;;;;;;10.65;68.50;96880.13;5094522;28;19957;-72
2022/04/30 02:17:26;;;;;;;;;;;;;;;10.62;68.38;96877.91;5094171;28;19961;-72
2022/04/30 02:22:41;;;;;;;;;;;;;;;10.58;67.54;96879.34;5094466;28;19951;-72
2022/04/30 02:25:12;;;;;;;;;;;;;;;10.56;68.62;96883.97;5093327;28;19956;-73
2022/04/30 02:27:39;;;;;;;;;;;;;;;10.55;66.50;96866.66;5094163;28;19948;-72
2022/04/30 02:30:06;;;;;;;;;;;;;;;10.57;68.08;96880.34;5094167;28;19962;-73
2022/04/30 02:32:41;;;;;;;;;;;;;;;10.54;68.50;96873.72;5093957;28;19972;-72
2022/04/30 02:35:08;;;;;;;;;;;;;;;10.55;68.89;96866.66;5093942;28;19958;-72
2022/04/30 02:37:35;;;;;;;;;;;;;;;10.51;68.71;96863.63;5094314;28;19963;-72
2022/04/30 02:40:02;;;;;;;;;;;;;;;10.48;66.77;96855.38;5093922;28;19966;-72
2022/04/30 02:42:51;;;;;;;;;;;;;;;10.46;70.10;96865.28;5072555;28;19968;-72
2022/04/30 02:45:17;;;;;;;;;;;;;;;10.42;67.19;96850.97;5093989;28;19952;-72
2022/04/30 02:47:44;;;;;;;;;;;;;;;10.39;68.01;96859.22;5093879;28;19961;-73
2022/04/30 02:50:11;;;;;;;;;;;;;;;10.37;69.50;96869.91;5093847;28;19959;-72
2022/04/30 02:52:37;;;;;;;;;;;;;;;10.36;66.74;96853.38;5084202;28;20295;-73
2022/04/30 02:55:04;;;;;;;;;;;;;;;10.35;68.39;96864.91;5093826;28;20418;-73
2022/04/30 02:59:53;;;;;;;;;;;;;;;10.34;70.32;96870.34;5093805;28;19953;-72
2022/04/30 03:00:30;;;;;;;;;;;;;;;10.38;70.52;96878.59;5093205;28;19970;-72
2022/04/30 03:02:56;;;;;;;;;;;;;;;10.36;69.07;96873.56;5093385;28;19960;-74
2022/04/30 03:05:22;;;;;;;;;;;;;;;10.34;69.41;96873.75;5093763;28;20038;-72
2022/04/30 03:07:48;;;;;;;;;;;;;;;10.36;69.80;96874.34;5093730;28;19978;-73
2022/04/30 03:10:22;;;;;;;;;;;;;;;10.39;69.07;96867.88;5093380;28;20409;-72
2022/04/30 03:12:49;;;;;;;;;;;;;;;10.37;69.95;96869.91;5093623;28;20002;-73
2022/04/30 03:15:17;;;;;;;;;;;;;;;10.33;68.69;96858.22;5093742;28;19958;-72
2022/04/30 03:23:12;;;;;;;;;;;;;;;10.32;70.49;96878.41;5093046;28;19955;-72
2022/04/30 03:25:38;;;;;;;;;;;;;;;10.32;69.79;96875.78;5075688;28;20012;-72
2022/04/30 03:28:04;;;;;;;;;;;;;;;10.33;71.00;96881.81;5093483;28;19966;-73
2022/04/30 03:30:30;;;;;;;;;;;;;;;10.33;69.75;96879.19;5093303;28;19956;-73
2022/04/30 03:32:56;;;;;;;;;;;;;;;10.32;68.45;96856.63;5093408;28;19973;-72
2022/04/30 03:35:22;;;;;;;;;;;;;;;10.25;67.77;96859.25;5093291;28;19954;-72
2022/04/30 03:37:47;;;;;;;;;;;;;;;10.20;71.21;96882.63;5093973;28;20007;-72
2022/04/30 03:40:14;;;;;;;;;;;;;;;10.20;71.45;96877.38;5093174;28;20442;-73
2022/04/30 03:42:39;;;;;;;;;;;;;;;10.19;69.64;96854.81;5075212;28;19973;-73
2022/04/30 03:45:06;;;;;;;;;;;;;;;10.16;72.76;96882.25;5093285;28;19996;-73
2022/04/30 03:47:31;;;;;;;;;;;;;;;10.15;73.71;96888.47;5093386;28;20429;-73
2022/04/30 03:49:59;;;;;;;;;;;;;;;10.15;73.30;96877.19;5093333;28;19959;-73
2022/04/30 03:52:30;;;;;;;;;;;;;;;10.16;72.97;96877.00;5093053;28;19962;-72
2022/04/30 03:54:56;;;;;;;;;;;;;;;10.13;70.44;96860.88;5095938;28;20368;-73
2022/04/30 03:57:22;;;;;;;;;;;;;;;10.07;73.19;96878.22;5097094;28;20007;-72
2022/04/30 03:59:49;;;;;;;;;;;;;;;10.06;72.67;96873.19;5096709;28;19972;-72
2022/04/30 04:02:15;;;;;;;;;;;;;;;10.07;73.55;96888.69;5078632;28;20398;-73
2022/04/30 04:04:41;;;;;;;;;;;;;;;10.06;71.45;96876.63;5097021;28;20011;-73
2022/04/30 04:07:06;;;;;;;;;;;;;;;10.05;74.54;96887.28;5096752;28;20482;-72
2022/04/30 04:09:32;;;;;;;;;;;;;;;10.06;72.55;96888.91;5096822;28;20310;-73
2022/04/30 04:11:58;;;;;;;;;;;;;;;10.03;73.00;96884.88;5096831;28;19976;-72
2022/04/30 04:19:53;;;;;;;;;;;;;;;9.98;76.52;96899.59;5096937;28;19965;-73
2022/04/30 04:22:19;;;;;;;;;;;;;;;9.93;74.80;96908.88;5096620;28;19952;-73
2022/04/30 04:27:29;;;;;;;;;;;;;;;9.95;72.47;96899.00;5096574;28;19963;-74
2022/04/30 04:29:55;;;;;;;;;;;;;;;9.96;75.07;96918.13;5095239;28;20000;-74
2022/04/30 04:32:22;;;;;;;;;;;;;;;9.98;76.45;96917.94;5096416;28;20406;-73
2022/04/30 04:34:48;;;;;;;;;;;;;;;9.98;76.70;96934.47;5096483;28;19966;-74
2022/04/30 04:37:14;;;;;;;;;;;;;;;10.03;76.17;96931.22;5096240;28;19953;-74
2022/04/30 04:39:40;;;;;;;;;;;;;;;10.06;76.40;96939.50;5096235;28;20044;-75
2022/04/30 04:42:07;;;;;;;;;;;;;;;10.11;76.69;96938.91;5094906;28;20076;-74
2022/04/30 04:44:33;;;;;;;;;;;;;;;10.12;77.29;96941.31;5096430;28;19957;-74
2022/04/30 04:47:00;;;;;;;;;;;;;;;10.12;76.10;96938.69;5095623;28;19954;-74
2022/04/30 04:49:27;;;;;;;;;;;;;;;10.13;78.00;96953.41;5096012;28;19950;-74
2022/04/30 04:51:53;;;;;;;;;;;;;;;10.15;77.64;96950.59;5094871;28;19966;-74
2022/04/30 04:54:19;;;;;;;;;;;;;;;10.19;77.13;96951.78;5095774;28;19951;-75
2022/04/30 04:56:44;;;;;;;;;;;;;;;10.19;76.78;96945.75;5096410;28;20005;-75
2022/04/30 04:59:10;;;;;;;;;;;;;;;10.21;76.69;96939.28;5096404;28;20014;-75
2022/04/30 05:01:37;;;;;;;;;;;;;;;10.23;76.50;96947.75;5095962;28;19979;-74
2022/04/30 05:04:02;;;;;;;;;;;;;;;10.22;77.58;96948.75;5077305;28;19983;-75
2022/04/30 05:06:28;;;;;;;;;;;;;;;10.23;78.03;96949.59;5095768;28;20015;-75
2022/04/30 05:08:54;;;;;;;;;;;;;;;10.22;77.91;96948.75;5094376;28;20010;-74
2022/04/30 05:11:20;;;;;;;;;;;;;;;10.23;79.02;96952.22;5096138;28;19955;-75
2022/04/30 05:13:46;;;;;;;;;;;;;;;10.24;78.89;96951.19;5095807;28;19970;-75
2022/04/30 05:16:12;;;;;;;;;;;;;;;10.24;78.18;96951.19;5095527;28;19997;-75
2022/04/30 05:18:38;;;;;;;;;;;;;;;10.24;77.87;96948.56;5077370;28;19954;-74
2022/04/30 05:21:04;;;;;;;;;;;;;;;10.23;78.56;96953.00;5093980;28;19956;-75
2022/04/30 05:23:31;;;;;;;;;;;;;;;10.21;78.48;96948.97;5095391;28;20000;-75
2022/04/30 05:25:57;;;;;;;;;;;;;;;10.21;78.13;96952.41;5095522;28;20413;-75
2022/04/30 05:28:23;;;;;;;;;;;;;;;10.14;78.42;96952.41;5095168;28;19954;-75
2022/04/30 05:30:49;;;;;;;;;;;;;;;10.01;76.38;96941.91;5095348;28;20318;-75
2022/04/30 05:33:14;;;;;;;;;;;;;;;9.90;79.65;96953.78;5095203;28;19954;-75
2022/04/30 05:35:40;;;;;;;;;;;;;;;9.88;79.51;96953.19;5077029;28;19963;-75
2022/04/30 05:38:06;;;;;;;;;;;;;;;9.90;79.67;96953.00;5094754;28;20012;-75
2022/04/30 05:40:32;;;;;;;;;;;;;;;9.91;79.62;96957.22;5095233;28;19968;-75
2022/04/30 05:42:58;;;;;;;;;;;;;;;9.90;79.61;96951.19;5095034;28;19957;-76
2022/04/30 05:45:25;;;;;;;;;;;;;;;9.86;79.48;96952.59;5093662;28;19956;-76
2022/04/30 05:47:50;;;;;;;;;;;;;;;9.82;80.52;96945.34;5093852;28;19959;-75
2022/04/30 05:50:16;;;;;;;;;;;;;;;9.80;80.45;96948.16;5076547;28;19950;-76
2022/04/30 05:52:42;;;;;;;;;;;;;;;9.82;80.35;96956.63;5094621;28;19952;-75
2022/04/30 05:55:08;;;;;;;;;;;;;;;9.84;80.64;96948.56;5093972;28;20414;-76
2022/04/30 05:57:34;;;;;;;;;;;;;;;9.82;79.91;96951.38;5094572;28;19974;-75
2022/04/30 06:00:00;;;;;;;;;;;;;;;9.82;80.38;96951.38;5094645;28;20339;-76
2022/04/30 06:02:26;;;;;;;;;;;;;;;9.84;80.92;96948.56;5094580;28;19957;-76
2022/04/30 06:04:52;;;;;;;;;;;;;;;9.85;80.49;96956.22;5094518;28;20042;-76
2022/04/30 06:07:21;;;;;;;;;;;;;;;9.86;80.65;96955.19;5094494;28;19961;-76
2022/04/30 06:09:47;;;;;;;;;;;;;;;9.86;81.20;96952.59;5093396;28;19998;-76
2022/04/30 06:12:12;;;;;;;;;;;;;;;9.88;81.64;96957.63;5094385;28;19953;-76
2022/04/30 06:14:38;;;;;;;;;;;;;;;9.88;82.64;96955.00;5094395;28;19983;-77
2022/04/30 06:17:04;;;;;;;;;;;;;;;9.88;81.66;96962.88;5092813;28;20019;-76
2022/04/30 06:19:30;;;;;;;;;;;;;;;9.86;81.54;96960.44;5094290;28;19956;-76
2022/04/30 06:21:56;;;;;;;;;;;;;;;9.88;81.43;96963.66;5076089;28;19974;-76
2022/04/30 06:24:22;;;;;;;;;;;;;;;9.88;80.74;96962.88;5076532;28;19952;-76
2022/04/30 06:26:48;;;;;;;;;;;;;;;9.87;80.26;96959.44;5094300;28;20009;-76
2022/04/30 06:29:14;;;;;;;;;;;;;;;9.85;80.71;96969.31;5075999;28;20040;-76
2022/04/30 06:31:40;;;;;;;;;;;;;;;9.84;79.01;96964.28;5076085;28;20075;-77
2022/04/30 06:34:05;;;;;;;;;;;;;;;9.79;81.95;96967.50;5093870;28;19953;-76
2022/04/30 06:36:31;;;;;;;;;;;;;;;9.72;81.85;96967.50;5094072;28;20045;-76
2022/04/30 06:38:57;;;;;;;;;;;;;;;9.72;82.63;96974.53;5092951;28;20420;-76
2022/04/30 06:41:23;;;;;;;;;;;;;;;9.72;82.11;96974.53;5076188;28;20022;-76
2022/04/30 06:43:52;;;;;;;;;;;;;;;9.75;81.54;96972.31;5075722;28;19961;-76
2022/04/30 06:46:18;;;;;;;;;;;;;;;9.77;82.98;96980.00;5075942;28;19958;-78
2022/04/30 06:48:44;;;;;;;;;;;;;;;9.80;82.84;96981.41;5093482;28;20307;-76
2022/04/30 06:51:11;;;;;;;;;;;;;;;9.84;82.01;96980.00;5094142;28;19951;-76
2022/04/30 06:59:10;;;;;;;;;;;;;;;9.89;82.70;96981.03;5086490;28;19965;-76
2022/04/30 07:01:53;;;;;;;;;;;;;;;9.91;82.50;96980.78;5092298;28;19968;-75
2022/04/30 07:04:19;;;;;;;;;;;;;;;9.91;83.40;96979.00;5075853;28;19978;-76
2022/04/30 07:06:47;;;;;;;;;;;;;;;9.89;83.06;96977.56;5093838;28;19960;-76
2022/04/30 07:09:13;;;;;;;;;;;;;;;9.88;83.21;96979.38;5093534;28;19974;-78
2022/04/30 07:11:39;;;;;;;;;;;;;;;9.89;82.48;96982.81;5075733;28;20413;-76
2022/04/30 07:14:05;;;;;;;;;;;;;;;9.92;83.26;96978.00;5093426;28;19957;-76
2022/04/30 07:16:31;;;;;;;;;;;;;;;9.95;85.27;96982.00;5093711;28;19952;-77
2022/04/30 07:18:58;;;;;;;;;;;;;;;9.93;82.68;96978.78;5093681;28;19958;-76
2022/04/30 07:21:24;;;;;;;;;;;;;;;9.92;85.41;96979.81;5092307;28;20365;-76
2022/04/30 07:23:51;;;;;;;;;;;;;;;9.92;83.08;96985.84;5092527;28;19961;-78
2022/04/30 07:26:17;;;;;;;;;;;;;;;9.90;83.59;96980.00;5075935;28;20393;-76
2022/04/30 07:28:43;;;;;;;;;;;;;;;9.91;83.61;96980.78;5094524;28;20004;-77
2022/04/30 07:31:29;;;;;;;;;;;;;;;9.91;83.18;96978.19;5072273;28;19951;-77
2022/04/30 07:33:55;;;;;;;;;;;;;;;9.93;83.53;96986.66;5097694;28;19956;-77
2022/04/30 07:36:20;;;;;;;;;;;;;;;9.94;83.65;96977.78;5079332;28;20016;-77
2022/04/30 07:38:46;;;;;;;;;;;;;;;9.92;83.69;96975.38;5079222;28;19951;-76
2022/04/30 07:41:12;;;;;;;;;;;;;;;9.90;85.33;96974.75;5097355;28;20025;-77
2022/04/30 07:43:38;;;;;;;;;;;;;;;9.89;82.88;96969.72;5097195;28;19953;-77
2022/04/30 07:46:04;;;;;;;;;;;;;;;9.85;83.63;96971.94;5079479;28;20473;-77
2022/04/30 07:48:30;;;;;;;;;;;;;;;9.81;85.43;96962.88;5097304;28;20414;-76
2022/04/30 07:50:57;;;;;;;;;;;;;;;9.78;85.82;96967.69;5097049;28;20045;-76
2022/04/30 07:53:24;;;;;;;;;;;;;;;9.75;84.78;96972.31;5097253;28;19958;-76
2022/04/30 07:55:49;;;;;;;;;;;;;;;9.77;85.30;96969.50;5095872;28;19958;-77
2022/04/30 07:58:15;;;;;;;;;;;;;;;9.79;86.80;96969.31;5097011;28;20008;-76
2022/04/30 08:00:41;;;;;;;;;;;;;;;9.77;85.70;96974.75;5096148;28;20063;-76
2022/04/30 08:03:07;;;;;;;;;;;;;;;9.77;88.75;96972.13;5096653;28;19958;-77
2022/04/30 08:05:34;;;;;;;;;;;;;;;9.76;88.36;96980.97;5097091;28;20055;-76
2022/04/30 08:08:00;;;;;;;;;;;;;;;9.75;87.76;96976.75;5096923;28;20311;-76
2022/04/30 08:10:26;;;;;;;;;;;;;;;9.77;86.36;96984.44;5095730;28;19952;-76
2022/04/30 08:12:55;;;;;;;;;;;;;;;9.76;88.12;96986.22;5095719;28;19950;-76
2022/04/30 08:15:22;;;;;;;;;;;;;;;9.79;86.94;96991.06;5096537;28;20421;-77
2022/04/30 08:17:48;;;;;;;;;;;;;;;9.83;88.38;96992.28;5096429;28;19959;-76
2022/04/30 08:20:13;;;;;;;;;;;;;;;9.89;88.56;96988.06;5078609;28;20410;-76
2022/04/30 08:22:39;;;;;;;;;;;;;;;9.95;87.26;96990.69;5096297;28;19958;-76
2022/04/30 08:25:06;;;;;;;;;;;;;;;10.01;86.03;96996.94;5078755;28;19951;-76
2022/04/30 08:27:32;;;;;;;;;;;;;;;10.04;87.76;96999.16;5096602;28;19959;-77
2022/04/30 08:29:58;;;;;;;;;;;;;;;10.08;84.99;97002.19;5095328;28;19964;-76
2022/04/30 08:32:25;;;;;;;;;;;;;;;10.11;86.19;96999.97;5078553;28;19951;-75
2022/04/30 08:34:51;;;;;;;;;;;;;;;10.14;86.21;97004.00;5096280;28;20323;-75
2022/04/30 08:37:17;;;;;;;;;;;;;;;10.15;85.55;97003.81;5095409;28;19966;-75
2022/04/30 08:39:44;;;;;;;;;;;;;;;10.16;86.54;97008.06;5095364;28;20419;-76
2022/04/30 08:42:10;;;;;;;;;;;;;;;10.24;86.62;97006.22;5096274;28;19968;-76
2022/04/30 08:44:37;;;;;;;;;;;;;;;10.30;86.39;97006.25;5078160;28;19948;-76
2022/04/30 08:47:03;;;;;;;;;;;;;;;10.34;85.42;97010.09;5096114;28;19963;-76
2022/04/30 08:49:30;;;;;;;;;;;;;;;10.37;86.45;97008.88;5096042;28;19952;-76
2022/04/30 08:51:56;;;;;;;;;;;;;;;10.41;85.59;97004.84;5095862;28;19956;-76
2022/04/30 08:54:22;;;;;;;;;;;;;;;10.48;85.91;97005.66;5096070;28;20027;-76
2022/04/30 08:56:55;;;;;;;;;;;;;;;10.52;84.79;97006.03;5096131;28;19980;-76
2022/04/30 08:59:21;;;;;;;;;;;;;;;10.56;85.05;97007.25;5083634;28;19954;-76
2022/04/30 09:01:48;;;;;;;;;;;;;;;10.63;85.29;97009.88;5095606;28;19972;-76
2022/04/30 09:04:14;;;;;;;;;;;;;;;10.71;85.56;97007.03;5077513;28;19973;-76
2022/04/30 09:06:44;;;;;;;;;;;;;;;10.76;86.30;97004.59;5095573;28;20323;-76
2022/04/30 09:09:10;;;;;;;;;;;;;;;10.81;85.19;97009.22;5095949;28;19951;-77
2022/04/30 09:11:38;;;;;;;;;;;;;;;10.84;85.68;97004.38;5077416;28;19957;-76
2022/04/30 09:14:04;;;;;;;;;;;;;;;10.89;84.00;97003.75;5060961;28;19957;-77
2022/04/30 09:16:30;;;;;;;;;;;;;;;10.97;85.54;96999.09;5094151;28;19964;-76
2022/04/30 09:19:01;;;;;;;;;;;;;;;11.12;84.88;97005.91;5077360;28;19953;-76
2022/04/30 09:21:29;;;;;;;;;;;;;;;11.23;85.85;97002.63;5073306;28;19965;-76
2022/04/30 09:24:05;;;;;;;;;;;;;;;11.34;84.53;97002.00;5077221;28;20031;-77
2022/04/30 09:26:40;;;;;;;;;;;;;;;11.46;84.69;96996.88;5095376;28;20324;-76
2022/04/30 09:29:22;;;;;;;;;;;;;;;11.52;83.55;97003.13;5094038;28;19959;-76
2022/04/30 09:31:49;;;;;;;;;;;;;;;11.51;82.96;97004.16;5095054;28;19965;-76
2022/04/30 09:39:44;;;;;;;;;;;;;;;11.62;82.26;96997.41;5077314;28;19963;-76
2022/04/30 09:42:10;;;;;;;;;;;;;;;11.69;82.04;97000.81;5094748;28;20041;-76
2022/04/30 09:44:37;;;;;;;;;;;;;;;11.78;81.32;96992.47;5095208;28;19986;-76
2022/04/30 09:47:06;;;;;;;;;;;;;;;11.90;80.93;96992.63;5094945;28;19965;-76
2022/04/30 09:55:01;;;;;;;;;;;;;;;12.41;80.46;96982.94;5095215;28;20379;-76
2022/04/30 09:57:30;;;;;;;;;;;;;;;12.49;79.17;96979.22;5094579;28;20014;-76
2022/04/30 09:59:57;;;;;;;;;;;;;;;12.57;79.33;96982.38;5094750;28;19960;-74
2022/04/30 10:02:24;;;;;;;;;;;;;;;12.58;78.65;96981.34;5094579;28;19969;-75
2022/04/30 10:04:50;;;;;;;;;;;;;;;12.56;78.95;96980.78;5094553;28;19982;-74
2022/04/30 10:07:19;;;;;;;;;;;;;;;12.48;78.73;96983.69;5094607;28;19964;-76
2022/04/30 10:09:53;;;;;;;;;;;;;;;12.31;78.05;96980.78;5084212;28;19966;-74
2022/04/30 10:12:24;;;;;;;;;;;;;;;12.16;80.49;96986.38;5093247;28;20406;-74
2022/04/30 10:14:50;;;;;;;;;;;;;;;12.01;78.88;96987.69;5094449;28;20415;-74
2022/04/30 10:17:17;;;;;;;;;;;;;;;11.90;79.24;96987.34;5094241;28;19952;-75
2022/04/30 10:19:45;;;;;;;;;;;;;;;11.82;78.74;96984.16;5094248;28;20008;-74
2022/04/30 10:22:15;;;;;;;;;;;;;;;11.71;79.26;96983.81;5094253;28;19964;-74
2022/04/30 10:24:42;;;;;;;;;;;;;;;11.68;79.36;96984.25;5076148;28;20315;-74
2022/04/30 10:27:08;;;;;;;;;;;;;;;11.67;80.04;96992.34;5094037;28;19963;-75
2022/04/30 10:29:34;;;;;;;;;;;;;;;11.59;79.03;96988.16;5080573;28;20405;-74
2022/04/30 10:32:00;;;;;;;;;;;;;;;11.56;77.88;96980.69;5094179;28;19956;-75
2022/04/30 10:34:30;;;;;;;;;;;;;;;11.58;80.16;96979.44;5094737;28;20390;-74
2022/04/30 10:36:55;;;;;;;;;;;;;;;11.67;81.31;96989.69;5093968;28;20025;-75
2022/04/30 10:39:21;;;;;;;;;;;;;;;11.74;78.97;96982.59;5081281;28;20328;-74
2022/04/30 10:41:52;;;;;;;;;;;;;;;11.81;79.42;96978.09;5093964;28;19968;-74
2022/04/30 10:44:29;;;;;;;;;;;;;;;11.91;78.53;96978.47;5093744;28;19966;-74
2022/04/30 10:46:55;;;;;;;;;;;;;;;12.05;79.16;96987.03;5093643;28;19964;-75
2022/04/30 10:49:20;;;;;;;;;;;;;;;12.20;77.77;96978.88;5092564;28;19957;-74
2022/04/30 10:51:46;;;;;;;;;;;;;;;12.32;78.34;96969.22;5092599;28;19975;-75
2022/04/30 10:54:16;;;;;;;;;;;;;;;12.51;77.78;96980.59;5093644;28;19955;-74
2022/04/30 10:56:43;;;;;;;;;;;;;;;12.73;76.27;96970.47;5094403;28;19958;-74
2022/04/30 10:59:09;;;;;;;;;;;;;;;12.91;74.82;96966.25;5093573;28;19956;-75
2022/04/30 11:01:35;;;;;;;;;;;;;;;13.07;72.77;96954.31;5092708;28;19967;-74
2022/04/30 11:04:02;;;;;;;;;;;;;;;13.10;70.90;96940.69;5094127;28;20320;-74
2022/04/30 11:06:29;;;;;;;;;;;;;;;13.11;71.63;96951.03;5092398;28;19977;-74
2022/04/30 11:08:56;;;;;;;;;;;;;;;13.15;74.05;96960.09;5093355;28;19959;-74
2022/04/30 11:11:22;;;;;;;;;;;;;;;13.20;74.69;96956.78;5093558;28;19950;-74
2022/04/30 11:13:55;;;;;;;;;;;;;;;13.13;73.16;96956.06;5093808;28;19965;-74
2022/04/30 11:16:27;;;;;;;;;;;;;;;12.96;73.14;96948.75;5081785;28;19971;-75
2022/04/30 11:18:56;;;;;;;;;;;;;;;12.76;72.72;96951.59;5093636;28;20422;-74
2022/04/30 11:21:28;;;;;;;;;;;;;;;12.57;75.29;96961.31;5093480;28;19978;-75
2022/04/30 11:23:54;;;;;;;;;;;;;;;12.45;75.67;96962.25;5093759;28;19950;-74
2022/04/30 11:26:20;;;;;;;;;;;;;;;12.38;76.57;96968.38;5092341;28;19955;-74
2022/04/30 11:28:49;;;;;;;;;;;;;;;12.36;75.49;96959.09;5092888;28;20423;-74
2022/04/30 11:31:20;;;;;;;;;;;;;;;12.34;75.79;96954.03;5093391;28;19973;-74
2022/04/30 11:33:46;;;;;;;;;;;;;;;12.37;76.09;96955.47;5093274;28;19966;-75
2022/04/30 11:36:12;;;;;;;;;;;;;;;12.40;76.85;96957.66;5093484;28;19954;-74
2022/04/30 11:38:38;;;;;;;;;;;;;;;12.42;76.25;96952.19;5093225;28;20272;-74
2022/04/30 11:41:05;;;;;;;;;;;;;;;12.43;76.61;96951.13;5093396;28;19953;-74
2022/04/30 11:43:31;;;;;;;;;;;;;;;12.34;76.40;96951.41;5093639;28;19964;-75
2022/04/30 11:46:15;;;;;;;;;;;;;;;12.17;75.93;96951.16;5093732;28;19956;-75
2022/04/30 11:48:41;;;;;;;;;;;;;;;12.05;78.08;96963.38;5092246;28;19955;-74
2022/04/30 11:51:07;;;;;;;;;;;;;;;12.02;77.38;96953.31;5092438;28;19970;-75
2022/04/30 11:53:35;;;;;;;;;;;;;;;12.01;76.36;96953.53;5093221;28;19959;-75
2022/04/30 11:56:01;;;;;;;;;;;;;;;12.01;77.04;96951.72;5093368;28;19956;-75
2022/04/30 11:58:38;;;;;;;;;;;;;;;12.06;76.65;96953.69;5093210;28;19960;-74
2022/04/30 12:01:04;;;;;;;;;;;;;;;12.15;77.42;96947.94;5093051;28;19958;-74
2022/04/30 12:03:30;;;;;;;;;;;;;;;12.23;73.39;96936.34;5092993;28;20344;-74
2022/04/30 12:05:59;;;;;;;;;;;;;;;12.28;73.63;96925.19;5093184;28;20295;-74
2022/04/30 12:08:28;;;;;;;;;;;;;;;12.38;73.30;96922.88;5093026;28;19961;-74
2022/04/30 12:10:55;;;;;;;;;;;;;;;12.52;74.71;96929.59;5092224;28;20328;-74
2022/04/30 12:13:24;;;;;;;;;;;;;;;12.72;74.80;96925.94;5075137;28;19956;-74
2022/04/30 12:16:01;;;;;;;;;;;;;;;13.02;73.23;96918.13;5078803;28;19958;-74
2022/04/30 12:26:53;;;;;;;;;;;;;;;13.13;72.22;96908.66;5097037;28;19956;-74
2022/04/30 12:29:19;;;;;;;;;;;;;;;13.24;72.58;96913.19;5095774;28;19954;-75
2022/04/30 12:31:46;;;;;;;;;;;;;;;13.34;72.30;96908.22;5096494;28;20353;-74
2022/04/30 12:34:16;;;;;;;;;;;;;;;13.27;70.43;96896.13;5096416;28;19973;-74
2022/04/30 12:36:52;;;;;;;;;;;;;;;13.19;70.99;96905.94;5095007;28;19951;-74
2022/04/30 12:39:18;;;;;;;;;;;;;;;13.21;71.21;96900.47;5096264;28;19961;-74
2022/04/30 12:41:44;;;;;;;;;;;;;;;13.23;70.88;96900.22;5096264;28;19955;-74
2022/04/30 12:44:10;;;;;;;;;;;;;;;13.31;70.83;96898.13;5096235;28;20320;-74
2022/04/30 12:46:36;;;;;;;;;;;;;;;13.43;71.50;96911.31;5096269;28;19954;-75
2022/04/30 12:49:02;;;;;;;;;;;;;;;13.40;71.03;96903.88;5095894;28;19964;-74
2022/04/30 12:51:28;;;;;;;;;;;;;;;13.36;70.42;96911.44;5096051;28;19992;-74
2022/04/30 12:53:53;;;;;;;;;;;;;;;13.24;69.69;96901.84;5096000;28;20423;-74
2022/04/30 12:56:19;;;;;;;;;;;;;;;13.09;70.11;96894.34;5096116;28;19960;-74
2022/04/30 12:58:47;;;;;;;;;;;;;;;12.99;70.17;96893.03;5095783;28;19965;-74
2022/04/30 13:01:13;;;;;;;;;;;;;;;12.95;70.66;96899.75;5096001;28;19959;-74
2022/04/30 13:03:40;;;;;;;;;;;;;;;12.97;70.53;96896.91;5073905;28;19985;-74
2022/04/30 13:06:08;;;;;;;;;;;;;;;12.95;69.75;96880.53;5057440;28;20448;-74
2022/04/30 13:14:04;;;;;;;;;;;;;;;12.85;69.14;96870.56;5075216;28;19962;-74
2022/04/30 13:16:29;;;;;;;;;;;;;;;12.78;68.10;96867.97;5074962;28;19961;-74
2022/04/30 13:18:56;;;;;;;;;;;;;;;12.73;68.77;96877.56;5075401;28;19998;-73
2022/04/30 13:21:23;;;;;;;;;;;;;;;12.66;69.22;96872.41;5075198;28;19961;-74
2022/04/30 13:23:48;;;;;;;;;;;;;;;12.63;70.04;96885.19;5075492;28;19955;-74
2022/04/30 13:26:14;;;;;;;;;;;;;;;12.56;69.14;96872.09;5090493;28;20422;-74
2022/04/30 13:28:40;;;;;;;;;;;;;;;12.57;70.17;96881.59;5074817;28;19966;-74
2022/04/30 13:31:06;;;;;;;;;;;;;;;12.85;69.91;96877.63;5074498;28;20356;-74
2022/04/30 13:33:32;;;;;;;;;;;;;;;13.16;68.90;96879.25;5075656;28;20411;-74
2022/04/30 13:35:58;;;;;;;;;;;;;;;13.43;67.30;96844.66;5074898;28;20300;-74
2022/04/30 13:38:23;;;;;;;;;;;;;;;13.48;68.45;96855.31;5075019;28;19965;-74
2022/04/30 13:40:50;;;;;;;;;;;;;;;13.40;67.85;96852.00;5074748;28;20044;-73
2022/04/30 13:43:15;;;;;;;;;;;;;;;13.21;67.52;96842.53;5073558;28;19965;-74